Time;durP1;ratioP1;P1;durP2;ratioP2;P2;SDS_P1;SDS_P2;PMS_P1;PMS_P2;Temp;Humidity;BMP_temperature;BMP_pressure;BME280_temperature;BME280_humidity;BME280_pressure;Samples;Min_cycle;Max_cycle;Signal;HPM_P1;HPM_P2
2021/03/10 00:02:02;;;;;;;19.60;14.73;;;6.90;98.60;;;;;;5111604;28;20274;-53
2021/03/10 00:04:27;;;;;;;17.33;13.68;;;6.90;98.50;;;;;;5111065;28;20189;-53
2021/03/10 00:06:53;;;;;;;18.47;15.30;;;6.60;98.90;;;;;;5111124;28;20554;-53
2021/03/10 00:09:20;;;;;;;18.47;13.60;;;6.80;99.20;;;;;;5111508;28;20796;-54
2021/03/10 00:11:45;;;;;;;21.67;14.52;;;6.50;99.40;;;;;;5111138;28;21003;-54
2021/03/10 00:14:11;;;;;;;17.80;14.13;;;6.40;99.80;;;;;;5111177;28;20203;-53
2021/03/10 00:16:36;;;;;;;19.37;14.50;;;6.50;99.80;;;;;;5099936;27;20296;-54
2021/03/10 00:19:03;;;;;;;17.53;13.70;;;6.50;99.60;;;;;;5113486;28;20559;-54
2021/03/10 00:21:29;;;;;;;20.13;14.60;;;6.60;99.50;;;;;;5129391;28;20203;-54
2021/03/10 00:23:54;;;;;;;19.30;14.03;;;6.70;99.40;;;;;;5111207;28;20183;-54
2021/03/10 00:26:20;;;;;;;19.47;14.63;;;6.80;99.40;;;;;;5111072;27;20186;-54
2021/03/10 00:28:45;;;;;;;19.73;14.77;;;6.70;99.50;;;;;;5111180;28;20189;-53
2021/03/10 00:31:11;;;;;;;19.10;14.80;;;6.70;99.60;;;;;;5114416;27;20235;-53
2021/03/10 00:33:36;;;;;;;20.97;14.80;;;7.00;99.80;;;;;;5114244;27;20522;-53
2021/03/10 00:36:02;;;;;;;19.73;14.07;;;6.50;99.90;;;;;;5113389;27;20239;-53
2021/03/10 00:38:28;;;;;;;18.98;14.95;;;6.70;99.90;;;;;;5114475;27;20586;-53
2021/03/10 00:40:54;;;;;;;22.40;17.33;;;6.80;99.90;;;;;;5114449;27;20245;-53
2021/03/10 00:43:19;;;;;;;22.70;16.80;;;6.60;99.90;;;;;;5114657;27;20176;-54
2021/03/10 00:45:45;;;;;;;24.33;17.30;;;6.50;99.90;;;;;;5114738;27;20200;-53
2021/03/10 00:48:11;;;;;;;21.53;16.47;;;6.70;99.90;;;;;;5114706;27;20572;-54
2021/03/10 00:50:36;;;;;;;20.43;16.17;;;6.50;99.90;;;;;;5114200;27;20233;-54
2021/03/10 00:53:02;;;;;;;25.00;17.00;;;6.40;99.90;;;;;;5122577;27;20257;-54
2021/03/10 00:55:27;;;;;;;22.60;17.03;;;6.70;99.90;;;;;;5115229;27;20680;-54
2021/03/10 00:57:53;;;;;;;23.60;16.07;;;6.70;99.90;;;;;;5114714;27;20205;-53
2021/03/10 01:00:21;;;;;;;23.47;16.77;;;6.70;99.90;;;;;;5113856;27;20210;-53
2021/03/10 01:02:46;;;;;;;23.45;16.70;;;6.30;99.90;;;;;;5114490;27;20178;-54
2021/03/10 01:05:12;;;;;;;25.57;17.10;;;6.60;99.90;;;;;;5114038;27;20192;-54
2021/03/10 01:07:38;;;;;;;22.42;15.90;;;6.70;99.90;;;;;;5132674;27;20204;-53
2021/03/10 01:10:09;;;;;;;25.47;16.30;;;6.80;99.90;;;;;;5114603;27;20193;-53
2021/03/10 01:12:36;;;;;;;21.05;16.23;;;6.60;99.90;;;;;;5113921;27;20240;-54
2021/03/10 01:15:09;;;;;;;25.10;17.27;;;6.30;99.90;;;;;;5109054;28;20277;-53
2021/03/10 01:17:35;;;;;;;20.98;15.88;;;6.20;99.90;;;;;;5108976;27;20618;-53
2021/03/10 01:20:05;;;;;;;23.07;17.00;;;6.50;99.90;;;;;;5114023;27;20258;-54
2021/03/10 01:22:30;;;;;;;21.88;15.85;;;6.20;99.90;;;;;;5132835;27;20572;-53
2021/03/10 01:24:56;;;;;;;19.80;15.07;;;6.50;99.90;;;;;;5114635;27;20725;-53
2021/03/10 01:27:21;;;;;;;21.10;15.30;;;6.40;99.90;;;;;;5113736;27;20284;-53
2021/03/10 01:29:47;;;;;;;20.87;15.67;;;6.60;99.90;;;;;;5114169;27;20194;-53
2021/03/10 01:32:13;;;;;;;22.17;15.93;;;6.60;99.90;;;;;;5113822;27;20642;-53
2021/03/10 01:34:38;;;;;;;21.70;15.67;;;6.60;99.90;;;;;;5132129;27;20280;-53
2021/03/10 01:37:04;;;;;;;23.37;17.20;;;6.60;99.90;;;;;;5110505;27;20206;-53
2021/03/10 01:39:30;;;;;;;22.43;17.00;;;6.40;99.90;;;;;;5113398;27;20204;-53
2021/03/10 01:41:57;;;;;;;20.80;14.77;;;6.50;99.90;;;;;;5112928;27;20214;-54
2021/03/10 01:44:24;;;;;;;23.63;16.42;;;6.50;99.90;;;;;;5113417;27;20182;-54
2021/03/10 01:46:49;;;;;;;24.67;17.13;;;6.60;99.90;;;;;;5131625;27;20699;-53
2021/03/10 01:49:15;;;;;;;21.33;16.57;;;6.60;99.90;;;;;;5109952;28;20211;-54
2021/03/10 01:51:41;;;;;;;24.90;17.13;;;6.50;99.90;;;;;;5113079;27;20196;-53
2021/03/10 01:54:07;;;;;;;26.13;17.37;;;6.80;99.90;;;;;;5112909;27;20266;-54
2021/03/10 01:56:33;;;;;;;26.20;18.90;;;6.50;99.90;;;;;;5113158;27;20196;-54
2021/03/10 01:58:59;;;;;;;24.70;16.15;;;6.40;99.90;;;;;;5113446;27;20208;-53
2021/03/10 02:01:24;;;;;;;25.77;17.67;;;6.40;99.90;;;;;;5113231;27;20209;-54
2021/03/10 02:03:50;;;;;;;27.20;18.13;;;6.40;99.90;;;;;;5112879;27;20266;-54
2021/03/10 02:06:36;;;;;;;26.77;18.13;;;6.40;99.90;;;;;;5112759;27;20209;-54
2021/03/10 02:09:10;;;;;;;24.50;17.45;;;6.20;99.90;;;;;;5112952;27;20537;-54
2021/03/10 02:11:50;;;;;;;22.92;17.50;;;6.20;99.90;;;;;;5112760;27;20640;-54
2021/03/10 02:14:33;;;;;;;26.90;18.05;;;6.20;99.90;;;;;;5112693;27;20293;-53
2021/03/10 02:17:06;;;;;;;25.88;18.05;;;6.10;99.90;;;;;;5123937;27;20587;-54
2021/03/10 02:19:37;;;;;;;28.05;17.65;;;6.20;99.90;;;;;;5112275;27;20194;-54
2021/03/10 02:22:21;;;;;;;25.13;17.67;;;6.00;99.90;;;;;;5131451;27;20182;-54
2021/03/10 02:24:56;;;;;;;26.02;18.27;;;6.30;99.90;;;;;;5130794;27;20178;-54
2021/03/10 02:27:51;;;;;;;24.60;17.20;;;6.00;99.90;;;;;;5112741;27;20310;-54
2021/03/10 02:30:27;;;;;;;27.90;18.50;;;6.00;99.90;;;;;;5131167;27;20189;-54
2021/03/10 02:32:54;;;;;;;24.48;17.73;;;6.20;99.90;;;;;;5112560;27;20192;-54
2021/03/10 02:35:21;;;;;;;25.13;17.95;;;6.20;99.90;;;;;;5112677;27;20190;-54
2021/03/10 02:37:50;;;;;;;24.75;17.02;;;5.90;99.90;;;;;;5111092;27;20292;-54
2021/03/10 02:40:17;;;;;;;26.38;18.13;;;6.20;99.90;;;;;;5112297;27;20234;-54
2021/03/10 02:42:45;;;;;;;25.08;17.02;;;6.10;99.90;;;;;;5112952;27;20672;-54
2021/03/10 02:45:12;;;;;;;24.73;16.63;;;5.80;99.90;;;;;;5112552;27;20591;-54
2021/03/10 02:47:38;;;;;;;24.13;16.95;;;6.00;99.90;;;;;;5131189;27;20197;-54
2021/03/10 02:50:07;;;;;;;23.60;16.77;;;6.20;99.90;;;;;;5112685;27;20204;-53
2021/03/10 02:52:34;;;;;;;27.77;18.17;;;6.00;99.90;;;;;;5130094;27;20230;-54
2021/03/10 02:55:00;;;;;;;25.35;18.08;;;6.10;99.90;;;;;;5111580;27;20181;-54
2021/03/10 02:57:26;;;;;;;27.33;18.40;;;6.10;99.90;;;;;;5112025;27;20703;-54
2021/03/10 02:59:53;;;;;;;24.80;17.30;;;6.20;99.90;;;;;;5111668;27;20232;-54
2021/03/10 03:02:18;;;;;;;28.25;18.40;;;6.20;99.90;;;;;;5130928;27;20182;-54
2021/03/10 03:04:44;;;;;;;28.73;18.80;;;5.80;99.90;;;;;;5111777;27;20513;-54
2021/03/10 03:07:10;;;;;;;23.10;16.67;;;6.00;99.90;;;;;;5113241;27;20201;-54
2021/03/10 03:09:38;;;;;;;28.02;18.05;;;6.00;99.90;;;;;;5112466;27;20184;-54
2021/03/10 03:12:04;;;;;;;23.30;18.17;;;5.80;99.90;;;;;;5112076;27;20196;-53
2021/03/10 03:14:32;;;;;;;25.77;18.55;;;6.00;99.90;;;;;;5110744;27;20196;-55
2021/03/10 03:16:59;;;;;;;26.80;18.00;;;5.60;99.90;;;;;;5118900;27;20224;-54
2021/03/10 03:19:24;;;;;;;27.98;17.85;;;5.70;99.90;;;;;;5130014;27;20541;-53
2021/03/10 03:21:51;;;;;;;27.87;19.50;;;5.80;99.90;;;;;;5112255;27;20204;-54
2021/03/10 03:24:18;;;;;;;26.05;18.13;;;5.80;99.90;;;;;;5111533;28;20550;-54
2021/03/10 03:26:45;;;;;;;25.77;18.80;;;5.70;99.90;;;;;;5112313;28;20255;-54
2021/03/10 03:29:12;;;;;;;27.00;17.77;;;5.60;99.90;;;;;;5111694;28;20204;-54
2021/03/10 03:31:40;;;;;;;28.98;18.77;;;5.50;99.90;;;;;;5111929;28;20239;-54
2021/03/10 03:34:06;;;;;;;30.50;20.15;;;5.90;99.90;;;;;;5129635;28;20521;-54
2021/03/10 03:36:33;;;;;;;26.40;17.05;;;5.60;99.90;;;;;;5111560;28;20242;-54
2021/03/10 03:39:01;;;;;;;28.40;19.17;;;5.50;99.90;;;;;;5109988;28;20189;-54
2021/03/10 03:41:27;;;;;;;31.33;20.20;;;5.80;99.90;;;;;;5112225;28;20209;-53
2021/03/10 03:43:53;;;;;;;28.40;19.40;;;5.50;99.90;;;;;;5111048;28;20229;-54
2021/03/10 03:46:19;;;;;;;29.65;19.80;;;5.80;99.90;;;;;;5111161;27;20982;-54
2021/03/10 03:48:45;;;;;;;31.52;21.65;;;5.20;99.90;;;;;;5107850;28;20175;-53
2021/03/10 03:51:27;;;;;;;29.50;19.23;;;5.70;99.90;;;;;;5111341;28;20188;-54
2021/03/10 03:54:13;;;;;;;27.75;18.55;;;5.70;99.90;;;;;;5111087;28;20214;-54
2021/03/10 03:56:39;;;;;;;28.42;19.38;;;5.50;99.90;;;;;;5110717;28;20269;-54
2021/03/10 03:59:05;;;;;;;30.13;19.47;;;5.90;99.90;;;;;;5115521;28;20189;-54
2021/03/10 04:01:30;;;;;;;27.60;19.00;;;5.80;99.90;;;;;;5111194;28;20584;-54
2021/03/10 04:03:56;;;;;;;26.23;19.47;;;6.10;99.90;;;;;;5111382;28;20206;-54
2021/03/10 04:06:22;;;;;;;28.97;20.20;;;5.80;99.90;;;;;;5115429;27;20181;-53
2021/03/10 04:08:47;;;;;;;28.53;19.40;;;6.00;99.90;;;;;;5115450;27;20188;-54
2021/03/10 04:11:15;;;;;;;26.43;18.20;;;5.70;99.90;;;;;;5133154;27;20176;-54
2021/03/10 04:13:40;;;;;;;28.33;20.38;;;5.70;99.90;;;;;;5115067;27;20207;-54
2021/03/10 04:16:10;;;;;;;29.33;19.57;;;5.60;99.90;;;;;;5114736;27;20188;-54
2021/03/10 04:18:37;;;;;;;29.17;19.33;;;5.60;99.90;;;;;;5133603;27;20536;-53
2021/03/10 04:21:05;;;;;;;29.55;20.38;;;5.50;99.90;;;;;;5114684;27;20200;-54
2021/03/10 04:23:30;;;;;;;24.80;18.02;;;5.90;99.90;;;;;;5114890;27;20181;-54
2021/03/10 04:25:56;;;;;;;28.37;20.57;;;5.80;99.90;;;;;;5115016;27;20181;-54
2021/03/10 04:28:21;;;;;;;26.97;20.20;;;5.40;99.90;;;;;;5115059;27;20208;-54
2021/03/10 04:30:47;;;;;;;28.97;20.80;;;5.60;99.90;;;;;;5133830;27;20307;-54
2021/03/10 04:33:13;;;;;;;29.13;20.47;;;5.60;99.90;;;;;;5121309;27;20189;-53
2021/03/10 04:35:38;;;;;;;34.17;21.70;;;5.60;99.90;;;;;;5114748;27;20254;-54
2021/03/10 04:38:04;;;;;;;29.33;20.63;;;5.40;99.90;;;;;;5113797;27;20549;-54
2021/03/10 04:40:29;;;;;;;29.37;20.63;;;5.30;99.90;;;;;;5114271;27;20273;-54
2021/03/10 04:42:55;;;;;;;31.00;22.73;;;5.40;99.90;;;;;;5103249;27;20271;-54
2021/03/10 04:45:21;;;;;;;33.67;21.40;;;5.60;99.90;;;;;;5114607;27;20184;-54
2021/03/10 04:47:47;;;;;;;28.50;20.20;;;5.50;99.90;;;;;;5114541;27;20207;-54
2021/03/10 04:50:15;;;;;;;46.90;27.80;;;5.60;99.90;;;;;;5114720;27;20638;-54
2021/03/10 04:52:41;;;;;;;31.52;21.92;;;5.40;99.90;;;;;;5133165;27;20551;-54
2021/03/10 04:55:09;;;;;;;27.27;19.38;;;5.30;99.90;;;;;;5114054;27;20621;-53
2021/03/10 04:57:35;;;;;;;32.47;21.33;;;5.40;99.90;;;;;;5106900;27;20212;-54
2021/03/10 05:00:01;;;;;;;29.42;20.45;;;5.40;99.90;;;;;;5114227;27;20208;-54
2021/03/10 05:02:26;;;;;;;35.27;22.77;;;5.50;99.90;;;;;;5114450;27;20179;-54
2021/03/10 05:04:52;;;;;;;36.13;20.90;;;5.60;99.90;;;;;;5132465;27;20419;-54
2021/03/10 05:07:17;;;;;;;31.97;21.70;;;5.50;99.90;;;;;;5114677;27;20816;-54
2021/03/10 05:09:43;;;;;;;29.03;20.90;;;5.60;99.90;;;;;;5113955;27;20224;-54
2021/03/10 05:12:10;;;;;;;27.27;19.00;;;5.40;99.90;;;;;;5132243;27;20189;-54
2021/03/10 05:14:35;;;;;;;28.60;19.45;;;5.30;99.90;;;;;;5113789;27;20197;-54
2021/03/10 05:17:01;;;;;;;31.53;20.87;;;5.30;99.90;;;;;;5112823;27;20203;-54
2021/03/10 05:19:27;;;;;;;33.03;21.50;;;5.40;99.90;;;;;;5113896;27;20193;-53
2021/03/10 05:21:53;;;;;;;31.58;20.08;;;5.40;99.90;;;;;;5113749;27;20520;-54
2021/03/10 05:24:19;;;;;;;35.73;21.93;;;5.20;99.90;;;;;;5113691;27;20183;-54
2021/03/10 05:26:44;;;;;;;30.10;22.10;;;5.60;99.90;;;;;;5113833;27;20979;-54
2021/03/10 05:29:10;;;;;;;31.23;21.13;;;5.60;99.90;;;;;;5113922;27;20190;-54
2021/03/10 05:31:36;;;;;;;29.17;20.60;;;5.60;99.90;;;;;;5113569;27;20263;-54
2021/03/10 05:34:01;;;;;;;30.60;21.50;;;5.50;99.90;;;;;;5112972;27;20666;-54
2021/03/10 05:36:27;;;;;;;26.87;20.13;;;5.40;99.90;;;;;;5131480;27;20517;-54
2021/03/10 05:38:53;;;;;;;34.33;21.20;;;5.60;99.90;;;;;;5109326;27;20178;-54
2021/03/10 05:41:19;;;;;;;34.13;22.13;;;5.80;99.90;;;;;;5113905;27;20208;-54
2021/03/10 05:43:44;;;;;;;33.50;21.50;;;5.50;99.90;;;;;;5113023;27;20537;-54
2021/03/10 05:46:11;;;;;;;31.77;21.80;;;5.60;99.90;;;;;;5113008;27;20433;-53
2021/03/10 05:48:39;;;;;;;34.83;22.83;;;5.60;99.90;;;;;;5112935;27;20542;-54
2021/03/10 05:51:06;;;;;;;33.92;22.60;;;5.60;99.90;;;;;;5111376;27;20186;-55
2021/03/10 05:53:42;;;;;;;29.20;20.95;;;5.50;99.90;;;;;;5101810;27;20186;-53
2021/03/10 05:56:07;;;;;;;30.77;21.77;;;5.60;99.90;;;;;;5104755;27;20179;-53
2021/03/10 05:58:33;;;;;;;30.03;20.60;;;5.60;99.90;;;;;;5109095;27;20588;-54
2021/03/10 06:00:59;;;;;;;33.83;22.90;;;5.80;99.90;;;;;;5111625;27;21221;-53
2021/03/10 06:03:24;;;;;;;32.97;20.87;;;5.70;99.90;;;;;;5119211;27;20201;-52
2021/03/10 06:06:01;;;;;;;30.00;20.77;;;5.60;99.90;;;;;;5106927;27;20185;-55
2021/03/10 06:08:34;;;;;;;31.23;20.55;;;5.80;99.90;;;;;;5104760;27;20298;-51
2021/03/10 06:11:00;;;;;;;31.23;19.75;;;5.60;99.90;;;;;;5106230;27;20269;-53
2021/03/10 06:13:32;;;;;;;31.98;20.63;;;5.60;99.90;;;;;;5105557;27;20265;-53
2021/03/10 06:16:02;;;;;;;35.15;22.58;;;5.40;99.90;;;;;;5105449;27;20185;-52
2021/03/10 06:18:32;;;;;;;32.58;21.50;;;5.80;99.90;;;;;;5106260;27;20226;-53
2021/03/10 06:21:09;;;;;;;30.27;20.00;;;5.60;99.90;;;;;;5106282;27;20239;-52
2021/03/10 06:23:47;;;;;;;32.88;21.02;;;5.70;99.90;;;;;;5104950;27;20275;-54
2021/03/10 06:26:21;;;;;;;25.88;20.00;;;5.70;99.90;;;;;;5107049;27;20565;-53
2021/03/10 06:28:47;;;;;;;33.67;22.05;;;5.70;99.90;;;;;;5123195;27;20200;-53
2021/03/10 06:31:21;;;;;;;33.88;21.23;;;5.60;99.90;;;;;;5105413;27;20193;-53
2021/03/10 06:34:02;;;;;;;32.72;20.50;;;5.90;99.90;;;;;;5106730;27;20663;-55
2021/03/10 06:36:30;;;;;;;30.77;20.20;;;5.80;99.90;;;;;;5104037;27;20211;-54
2021/03/10 06:38:56;;;;;;;31.33;20.58;;;6.10;99.90;;;;;;5107754;27;20847;-54
2021/03/10 06:41:47;;;;;;;41.13;21.92;;;5.70;99.90;;;;;;5105100;27;20618;-53
2021/03/10 06:44:33;;;;;;;35.92;21.20;;;6.30;99.90;;;;;;5104381;27;20190;-54
2021/03/10 06:47:03;;;;;;;31.25;20.83;;;6.40;99.90;;;;;;5102340;27;20673;-54
2021/03/10 06:49:32;;;;;;;36.65;21.73;;;6.60;99.90;;;;;;5099109;27;20201;-53
2021/03/10 06:51:58;;;;;;;28.65;20.02;;;6.50;99.90;;;;;;5122149;27;20182;-54
2021/03/10 06:54:26;;;;;;;30.92;19.35;;;6.40;99.90;;;;;;5107042;27;20267;-54
2021/03/10 06:57:08;;;;;;;32.60;21.27;;;6.60;99.90;;;;;;5116626;27;20207;-54
2021/03/10 06:59:45;;;;;;;30.98;22.00;;;6.80;99.90;;;;;;5117399;27;20185;-52
2021/03/10 07:02:19;;;;;;;27.25;19.80;;;6.40;99.90;;;;;;5101096;27;20687;-53
2021/03/10 07:04:47;;;;;;;28.95;19.95;;;6.70;99.90;;;;;;5101694;27;20365;-54
2021/03/10 07:07:14;;;;;;;31.67;21.30;;;6.50;99.90;;;;;;5107195;27;20572;-54
2021/03/10 07:09:41;;;;;;;29.58;20.52;;;6.60;99.90;;;;;;5107584;27;20182;-53
2021/03/10 07:12:08;;;;;;;26.70;19.50;;;6.70;99.90;;;;;;5125595;27;20182;-54
2021/03/10 07:14:35;;;;;;;29.95;20.30;;;6.80;99.90;;;;;;5110129;27;20542;-54
2021/03/10 07:17:04;;;;;;;27.83;19.80;;;6.60;99.90;;;;;;5108835;27;20223;-53
2021/03/10 07:19:29;;;;;;;31.30;21.02;;;6.60;99.90;;;;;;5108535;27;20660;-55
2021/03/10 07:21:58;;;;;;;33.00;21.30;;;6.70;99.90;;;;;;5106501;27;20238;-52
2021/03/10 07:24:31;;;;;;;28.23;19.30;;;6.70;99.90;;;;;;5109000;28;20178;-53
2021/03/10 07:26:59;;;;;;;28.95;20.98;;;6.60;99.90;;;;;;5106902;28;20283;-54
2021/03/10 07:29:27;;;;;;;28.38;19.90;;;7.00;99.90;;;;;;5109643;28;20206;-53
2021/03/10 07:32:04;;;;;;;32.03;21.27;;;6.90;99.90;;;;;;5109015;28;20213;-53
2021/03/10 07:34:30;;;;;;;30.55;21.55;;;6.90;99.90;;;;;;5109000;28;20181;-53
2021/03/10 07:36:56;;;;;;;28.47;20.37;;;7.10;99.90;;;;;;5126707;28;20199;-54
2021/03/10 07:39:27;;;;;;;36.60;22.48;;;7.00;99.90;;;;;;5113106;27;20424;-53
2021/03/10 07:41:53;;;;;;;28.65;20.63;;;7.00;99.90;;;;;;5113288;27;20206;-54
2021/03/10 07:44:24;;;;;;;30.27;21.13;;;7.40;99.90;;;;;;5113575;27;20171;-54
2021/03/10 07:47:04;;;;;;;25.65;19.50;;;7.40;99.90;;;;;;5114362;27;20202;-53
2021/03/10 07:49:29;;;;;;;29.42;19.55;;;7.40;99.90;;;;;;5108688;27;20196;-53
2021/03/10 07:52:12;;;;;;;28.70;21.00;;;7.30;99.90;;;;;;5112572;27;20265;-52
2021/03/10 07:54:39;;;;;;;32.92;21.77;;;7.40;99.90;;;;;;5114583;27;20194;-52
2021/03/10 07:57:15;;;;;;;25.40;18.73;;;7.40;99.90;;;;;;5131883;27;20283;-52
2021/03/10 07:59:57;;;;;;;27.80;19.73;;;7.40;99.90;;;;;;5106731;27;20189;-51
2021/03/10 08:02:24;;;;;;;29.95;21.27;;;7.60;99.90;;;;;;5111781;27;20187;-51
2021/03/10 08:04:56;;;;;;;32.85;21.23;;;7.80;99.90;;;;;;5131690;27;20198;-52
2021/03/10 08:07:26;;;;;;;27.65;20.30;;;7.90;99.90;;;;;;5109696;27;20204;-53
2021/03/10 08:09:53;;;;;;;30.55;19.58;;;7.50;99.90;;;;;;5110856;27;20179;-51
2021/03/10 08:12:31;;;;;;;27.35;20.23;;;7.80;99.90;;;;;;5113576;27;20567;-51
2021/03/10 08:14:56;;;;;;;34.65;21.27;;;7.60;99.90;;;;;;5107481;27;20194;-53
2021/03/10 08:17:29;;;;;;;29.95;21.15;;;7.60;99.90;;;;;;5131997;27;20429;-51
2021/03/10 08:19:57;;;;;;;30.58;20.92;;;7.70;99.90;;;;;;5106928;27;20203;-51
2021/03/10 08:22:28;;;;;;;28.77;21.00;;;8.20;99.90;;;;;;5112994;27;20189;-52
2021/03/10 08:24:56;;;;;;;27.88;19.55;;;7.80;99.90;;;;;;5124932;27;20554;-52
2021/03/10 08:27:42;;;;;;;26.75;19.70;;;8.00;99.90;;;;;;5130685;27;20199;-52
2021/03/10 08:30:11;;;;;;;30.83;21.13;;;8.20;99.90;;;;;;5112062;27;20180;-54
2021/03/10 08:32:37;;;;;;;28.10;19.52;;;8.20;99.60;;;;;;5111134;27;20187;-55
2021/03/10 08:35:12;;;;;;;29.80;20.42;;;8.60;99.30;;;;;;5111056;27;20198;-51
2021/03/10 08:37:55;;;;;;;27.38;19.95;;;8.60;98.80;;;;;;5113639;27;20679;-55
2021/03/10 08:40:25;;;;;;;25.08;18.30;;;8.60;98.40;;;;;;5126289;27;20213;-53
2021/03/10 08:42:52;;;;;;;29.20;19.63;;;8.60;97.80;;;;;;5112497;27;20228;-53
2021/03/10 08:45:24;;;;;;;25.98;18.55;;;8.70;98.30;;;;;;5113842;27;20179;-52
2021/03/10 08:48:02;;;;;;;27.63;19.40;;;8.80;98.50;;;;;;5114835;27;20203;-52
2021/03/10 08:50:30;;;;;;;26.60;19.52;;;8.40;98.60;;;;;;5104417;27;20662;-54
2021/03/10 08:52:56;;;;;;;24.98;17.75;;;8.80;98.40;;;;;;5108117;27;20278;-52
2021/03/10 08:55:26;;;;;;;30.83;18.90;;;9.10;97.70;;;;;;5111489;27;20290;-50
2021/03/10 08:57:58;;;;;;;24.35;18.60;;;9.50;96.80;;;;;;5108001;27;20653;-53
2021/03/10 09:00:26;;;;;;;26.55;18.27;;;9.60;96.10;;;;;;5110759;27;20293;-53
2021/03/10 09:02:53;;;;;;;25.23;18.00;;;9.90;95.70;;;;;;5109999;27;20266;-54
2021/03/10 09:05:29;;;;;;;27.08;17.83;;;9.90;95.50;;;;;;5104694;27;20194;-55
2021/03/10 09:07:56;;;;;;;28.73;18.73;;;10.00;94.60;;;;;;5126146;27;20205;-53
2021/03/10 09:10:23;;;;;;;24.27;17.92;;;10.40;94.40;;;;;;5107021;27;20812;-51
2021/03/10 09:12:51;;;;;;;24.50;16.85;;;10.20;93.90;;;;;;5113673;27;20543;-51
2021/03/10 09:15:19;;;;;;;23.90;17.55;;;10.20;94.00;;;;;;5112548;27;20207;-52
2021/03/10 09:17:45;;;;;;;26.13;17.40;;;10.20;94.00;;;;;;5107907;27;20687;-52
2021/03/10 09:20:24;;;;;;;24.60;17.10;;;10.40;94.20;;;;;;5120016;27;20211;-51
2021/03/10 09:22:51;;;;;;;23.90;17.50;;;10.40;93.60;;;;;;5107696;27;20491;-53
2021/03/10 09:25:20;;;;;;;22.00;17.60;;;10.50;93.20;;;;;;5110706;27;20190;-51
2021/03/10 09:27:45;;;;;;;24.38;18.33;;;10.70;93.20;;;;;;5108404;27;20200;-52
2021/03/10 09:30:28;;;;;;;23.47;17.97;;;11.10;92.30;;;;;;5122564;27;20592;-53
2021/03/10 09:32:54;;;;;;;20.52;15.73;;;11.30;91.90;;;;;;5112719;27;20189;-52
2021/03/10 09:35:27;;;;;;;22.80;16.37;;;11.10;91.40;;;;;;5112545;27;20249;-53
2021/03/10 09:37:59;;;;;;;24.02;17.70;;;11.70;91.00;;;;;;5108842;27;20462;-53
2021/03/10 09:40:46;;;;;;;21.42;15.02;;;11.30;90.50;;;;;;5106729;27;20205;-54
2021/03/10 09:43:25;;;;;;;21.92;15.50;;;11.60;90.50;;;;;;5110825;27;20695;-52
2021/03/10 09:45:56;;;;;;;23.65;15.68;;;11.90;90.10;;;;;;5125850;27;20226;-54
2021/03/10 09:48:35;;;;;;;22.05;15.52;;;12.20;88.50;;;;;;5105584;27;20210;-53
2021/03/10 09:51:05;;;;;;;21.90;16.00;;;12.20;87.00;;;;;;5105278;27;22611;-52
2021/03/10 09:53:31;;;;;;;24.63;16.13;;;12.20;85.20;;;;;;5108455;27;20353;-53
2021/03/10 09:56:30;;;;;;;22.45;15.18;;;12.10;84.80;;;;;;5108212;27;20182;-53
2021/03/10 09:58:56;;;;;;;21.80;15.45;;;11.90;82.40;;;;;;5087814;27;20192;-52
2021/03/10 10:01:25;;;;;;;17.00;12.88;;;11.90;82.50;;;;;;5108707;27;20260;-50
2021/03/10 10:03:53;;;;;;;17.02;11.90;;;11.70;82.20;;;;;;5106990;27;20180;-57
2021/03/10 10:06:20;;;;;;;16.25;12.27;;;11.40;82.20;;;;;;5104579;27;20737;-55
2021/03/10 10:08:46;;;;;;;21.17;15.07;;;10.90;82.40;;;;;;5112222;27;20236;-54
2021/03/10 10:11:13;;;;;;;15.90;13.00;;;10.70;83.40;;;;;;5110883;27;20591;-52
2021/03/10 10:13:47;;;;;;;18.77;12.38;;;10.40;83.90;;;;;;5114408;27;20191;-53
2021/03/10 10:16:13;;;;;;;15.88;11.98;;;10.60;84.60;;;;;;5111985;27;20183;-53
2021/03/10 10:18:39;;;;;;;19.15;11.95;;;10.50;84.60;;;;;;5121955;27;20200;-54
2021/03/10 10:21:05;;;;;;;20.93;13.60;;;10.00;85.30;;;;;;5125503;27;20215;-51
2021/03/10 10:23:31;;;;;;;15.80;12.18;;;10.10;87.00;;;;;;5112414;27;20559;-53
2021/03/10 10:25:57;;;;;;;17.52;12.10;;;10.10;87.80;;;;;;5111242;27;20206;-53
2021/03/10 10:28:23;;;;;;;20.25;12.18;;;10.40;87.00;;;;;;5128019;27;20233;-53
2021/03/10 10:30:49;;;;;;;15.80;11.30;;;10.50;85.80;;;;;;5109537;27;20940;-53
2021/03/10 10:33:15;;;;;;;14.77;11.43;;;10.50;85.10;;;;;;5109705;27;20437;-53
2021/03/10 10:35:40;;;;;;;15.33;10.77;;;10.70;84.10;;;;;;5110472;27;20189;-53
2021/03/10 10:38:09;;;;;;;11.63;9.60;;;10.70;82.90;;;;;;5125588;27;20239;-53
2021/03/10 10:40:35;;;;;;;12.68;9.50;;;10.80;81.60;;;;;;5111449;27;20200;-54
2021/03/10 10:43:01;;;;;;;12.77;10.07;;;10.90;81.00;;;;;;5108028;27;20176;-54
2021/03/10 10:45:27;;;;;;;13.90;9.50;;;10.90;79.60;;;;;;5111330;27;20180;-55
2021/03/10 10:47:52;;;;;;;10.63;7.57;;;11.00;79.80;;;;;;5109983;27;21013;-51
2021/03/10 10:50:18;;;;;;;11.63;9.30;;;10.90;78.10;;;;;;5111773;27;20636;-52
2021/03/10 10:52:44;;;;;;;11.97;8.10;;;10.90;77.80;;;;;;5110867;27;20176;-53
2021/03/10 10:55:12;;;;;;;7.18;5.60;;;11.20;77.30;;;;;;5109773;27;20253;-50
2021/03/10 10:57:38;;;;;;;6.85;4.70;;;11.40;72.80;;;;;;5110935;27;20216;-53
2021/03/10 11:00:09;;;;;;;7.00;6.00;;;11.40;70.90;;;;;;5108863;27;20433;-54
2021/03/10 11:02:37;;;;;;;6.55;5.35;;;11.70;69.00;;;;;;5102558;27;20242;-52
2021/03/10 11:05:04;;;;;;;6.53;5.10;;;11.90;67.90;;;;;;5112610;27;20188;-53
2021/03/10 11:07:29;;;;;;;8.18;4.75;;;11.80;65.70;;;;;;5101577;27;20200;-56
2021/03/10 11:09:55;;;;;;;5.80;3.83;;;11.90;66.10;;;;;;5108787;27;20178;-56
2021/03/10 11:12:21;;;;;;;7.33;3.83;;;12.10;64.80;;;;;;5110161;27;20595;-57
2021/03/10 11:14:47;;;;;;;6.00;3.97;;;12.00;64.30;;;;;;5109153;27;20284;-55
2021/03/10 11:17:13;;;;;;;7.10;4.25;;;11.90;64.60;;;;;;5110081;28;20290;-59
2021/03/10 11:19:38;;;;;;;5.07;4.10;;;11.80;64.40;;;;;;5111486;27;20187;-60
2021/03/10 11:22:06;;;;;;;5.23;4.63;;;11.50;64.70;;;;;;5109431;28;20211;-54
2021/03/10 11:24:32;;;;;;;5.57;4.18;;;11.60;65.40;;;;;;5110351;27;20198;-54
2021/03/10 11:26:58;;;;;;;4.53;3.90;;;11.80;64.50;;;;;;5109257;28;20529;-54
2021/03/10 11:29:23;;;;;;;4.53;4.00;;;11.60;63.30;;;;;;5111266;28;20184;-55
2021/03/10 11:31:49;;;;;;;4.30;3.63;;;11.70;64.10;;;;;;5111084;28;20196;-54
2021/03/10 11:34:16;;;;;;;5.43;3.67;;;11.60;62.90;;;;;;5110879;28;20185;-54
2021/03/10 11:36:42;;;;;;;5.35;4.03;;;12.00;64.40;;;;;;5110314;28;20256;-54
2021/03/10 11:39:08;;;;;;;3.47;3.03;;;11.80;63.80;;;;;;5107812;28;20180;-55
2021/03/10 11:41:37;;;;;;;4.38;3.88;;;12.00;64.10;;;;;;5105267;28;20472;-54
2021/03/10 11:44:03;;;;;;;4.50;3.50;;;11.60;63.40;;;;;;5119588;28;20185;-54
2021/03/10 11:46:29;;;;;;;5.30;4.03;;;11.50;62.90;;;;;;5102688;28;20213;-55
2021/03/10 11:48:55;;;;;;;4.87;3.43;;;11.80;62.40;;;;;;5123114;27;20210;-53
2021/03/10 11:51:20;;;;;;;5.33;3.40;;;11.80;62.90;;;;;;5110299;28;20271;-53
2021/03/10 11:53:46;;;;;;;4.93;4.20;;;11.90;62.70;;;;;;5108197;28;20439;-52
2021/03/10 11:56:12;;;;;;;4.00;3.20;;;11.90;61.90;;;;;;5091382;28;20206;-52
2021/03/10 11:58:39;;;;;;;6.60;3.53;;;12.10;61.70;;;;;;5108403;28;20821;-53
2021/03/10 12:01:04;;;;;;;6.65;4.03;;;12.10;62.00;;;;;;5101906;28;20205;-52
2021/03/10 12:03:30;;;;;;;4.13;3.73;;;11.90;61.10;;;;;;5105114;28;20197;-53
2021/03/10 12:05:56;;;;;;;7.20;5.10;;;12.20;62.40;;;;;;5103479;28;20188;-52
2021/03/10 12:08:21;;;;;;;7.50;5.60;;;12.10;62.80;;;;;;5122613;27;20742;-52
2021/03/10 12:10:47;;;;;;;9.10;6.37;;;12.10;62.20;;;;;;5109532;27;20186;-52
2021/03/10 12:13:12;;;;;;;9.03;5.50;;;12.40;65.00;;;;;;5108342;28;20212;-52
2021/03/10 12:15:39;;;;;;;9.30;5.33;;;12.20;65.50;;;;;;5109171;28;20230;-52
2021/03/10 12:18:06;;;;;;;6.65;4.68;;;12.30;64.00;;;;;;5108902;28;20212;-52
2021/03/10 12:20:31;;;;;;;6.40;4.70;;;12.20;63.40;;;;;;5110951;28;20206;-53
2021/03/10 12:22:57;;;;;;;5.43;4.63;;;11.80;62.20;;;;;;5109510;28;20661;-51
2021/03/10 12:25:23;;;;;;;5.67;4.90;;;12.00;63.10;;;;;;5109004;27;20280;-56
2021/03/10 12:27:50;;;;;;;5.00;4.10;;;12.10;62.70;;;;;;5127663;27;20201;-55
2021/03/10 12:30:16;;;;;;;6.32;4.50;;;12.50;60.80;;;;;;5112721;27;20413;-56
2021/03/10 12:32:42;;;;;;;5.40;4.30;;;12.70;60.20;;;;;;5114266;27;20768;-56
2021/03/10 12:35:08;;;;;;;5.47;4.60;;;12.50;60.60;;;;;;5131637;27;20406;-54
2021/03/10 12:37:35;;;;;;;6.05;4.75;;;12.50;61.20;;;;;;5131168;27;20199;-54
2021/03/10 12:40:00;;;;;;;4.60;4.10;;;12.70;58.60;;;;;;5114355;27;20665;-53
2021/03/10 12:42:26;;;;;;;5.33;4.13;;;12.10;58.60;;;;;;5111895;27;20181;-53
2021/03/10 12:44:52;;;;;;;5.43;4.07;;;12.10;59.00;;;;;;5113759;27;20363;-53